Time;durP1;ratioP1;P1;durP2;ratioP2;P2;SDS_P1;SDS_P2;PMS_P1;PMS_P2;Temp;Humidity;BMP_temperature;BMP_pressure;BME280_temperature;BME280_humidity;BME280_pressure;Samples;Min_cycle;Max_cycle;Signal;HPM_P1;HPM_P2
2021/04/10 00:02:04;;;;;;;5.18;4.65;;;;;;;;;;5116633;28;20185;-48
2021/04/10 00:04:29;;;;;;;6.45;4.78;;;;;;;;;;5111776;28;20551;-48
2021/04/10 00:06:56;;;;;;;6.95;5.05;;;;;;;;;;5117758;27;20268;-48
2021/04/10 00:09:22;;;;;;;9.07;4.50;;;;;;;;;;5106694;28;20260;-48
2021/04/10 00:11:48;;;;;;;5.65;4.53;;;;;;;;;;5131363;27;20228;-48
2021/04/10 00:14:15;;;;;;;7.53;4.50;;;;;;;;;;5099219;28;20178;-48
2021/04/10 00:16:41;;;;;;;5.47;4.55;;;;;;;;;;5118205;27;20252;-48
2021/04/10 00:19:07;;;;;;;6.40;4.28;;;;;;;;;;5115371;27;20173;-48
2021/04/10 00:21:33;;;;;;;4.97;4.35;;;;;;;;;;5116157;27;20512;-48
2021/04/10 00:24:00;;;;;;;7.55;4.50;;;;;;;;;;5116796;28;20187;-48
2021/04/10 00:26:26;;;;;;;6.05;4.00;;;;;;;;;;5126990;27;20591;-48
2021/04/10 00:28:52;;;;;;;6.82;4.63;;;;;;;;;;5119695;27;20480;-48
2021/04/10 00:31:18;;;;;;;6.18;4.25;;;;;;;;;;5101242;28;20516;-48
2021/04/10 00:33:44;;;;;;;5.38;4.20;;;;;;;;;;5110019;27;20193;-48
2021/04/10 00:36:10;;;;;;;5.85;4.15;;;;;;;;;;5115515;28;20211;-48
2021/04/10 00:38:37;;;;;;;5.57;4.22;;;;;;;;;;5096077;28;20584;-48
2021/04/10 00:41:13;;;;;;;7.38;4.63;;;;;;;;;;5122250;27;20184;-48
2021/04/10 00:43:39;;;;;;;7.32;4.43;;;;;;;;;;5137157;27;20165;-48
2021/04/10 00:46:06;;;;;;;5.65;4.15;;;;;;;;;;5123390;27;20256;-48
2021/04/10 00:48:32;;;;;;;5.60;4.38;;;;;;;;;;5104714;27;20424;-48
2021/04/10 00:50:58;;;;;;;4.75;4.15;;;;;;;;;;5120452;27;20570;-48
2021/04/10 00:53:25;;;;;;;6.13;4.18;;;;;;;;;;5126614;27;20192;-48
2021/04/10 00:55:53;;;;;;;7.03;4.00;;;;;;;;;;5121721;27;20835;-48
2021/04/10 00:58:19;;;;;;;8.20;4.18;;;;;;;;;;5120704;27;20434;-48
2021/04/10 01:00:45;;;;;;;5.93;3.72;;;;;;;;;;5114720;27;20197;-48
2021/04/10 01:03:11;;;;;;;5.55;3.80;;;;;;;;;;5112339;27;20190;-48
2021/04/10 01:05:37;;;;;;;6.50;4.20;;;;;;;;;;5115476;27;20177;-48
2021/04/10 01:08:04;;;;;;;7.13;5.15;;;;;;;;;;5119323;27;20556;-48
2021/04/10 01:10:30;;;;;;;5.85;4.47;;;;;;;;;;5116636;27;20243;-48
2021/04/10 01:12:56;;;;;;;6.97;4.93;;;;;;;;;;5113492;28;20233;-48
2021/04/10 01:15:26;;;;;;;8.45;5.47;;;;;;;;;;5111247;27;20568;-48
2021/04/10 01:17:59;;;;;;;8.50;5.30;;;;;;;;;;5113694;27;20666;-48
2021/04/10 01:20:43;;;;;;;6.40;4.95;;;;;;;;;;5099780;28;20212;-48
2021/04/10 01:23:24;;;;;;;7.13;4.65;;;;;;;;;;5110131;27;20219;-48
2021/04/10 01:25:53;;;;;;;5.22;4.50;;;;;;;;;;5101121;28;20192;-48
2021/04/10 01:28:31;;;;;;;7.05;4.40;;;;;;;;;;5078357;28;20184;-48
2021/04/10 01:30:58;;;;;;;6.57;4.05;;;;;;;;;;5101535;28;20201;-48
2021/04/10 01:33:28;;;;;;;5.65;4.05;;;;;;;;;;5115052;27;20231;-48
2021/04/10 01:35:57;;;;;;;6.88;4.10;;;;;;;;;;5112938;27;20194;-48
2021/04/10 01:38:25;;;;;;;5.38;4.25;;;;;;;;;;5100648;27;20189;-48
2021/04/10 01:40:52;;;;;;;7.95;4.28;;;;;;;;;;5100584;28;20275;-49
2021/04/10 01:43:18;;;;;;;7.05;4.10;;;;;;;;;;5115468;28;20166;-48
2021/04/10 01:45:44;;;;;;;6.20;4.30;;;;;;;;;;5109878;28;20255;-48
2021/04/10 01:48:11;;;;;;;4.32;3.50;;;;;;;;;;5124685;27;20177;-48
2021/04/10 01:50:38;;;;;;;5.35;3.72;;;;;;;;;;5107472;28;20205;-48
2021/04/10 01:53:05;;;;;;;7.47;3.75;;;;;;;;;;5113995;28;20216;-48
2021/04/10 01:55:31;;;;;;;4.43;3.78;;;;;;;;;;5116598;28;20184;-48
2021/04/10 01:57:58;;;;;;;4.85;3.20;;;;;;;;;;5115005;28;20230;-48
2021/04/10 02:00:25;;;;;;;4.53;3.40;;;;;;;;;;5125219;28;20188;-48
2021/04/10 02:02:53;;;;;;;6.82;3.38;;;;;;;;;;5116709;28;20213;-49
2021/04/10 02:05:19;;;;;;;3.53;2.88;;;;;;;;;;5113522;28;20509;-48
2021/04/10 02:07:47;;;;;;;4.07;2.90;;;;;;;;;;5129562;28;20173;-48
2021/04/10 02:10:20;;;;;;;4.95;3.28;;;;;;;;;;5115866;28;20200;-48
2021/04/10 02:12:49;;;;;;;3.83;2.63;;;;;;;;;;5109049;28;20562;-48
2021/04/10 02:15:15;;;;;;;4.25;3.17;;;;;;;;;;5129637;28;20552;-48
2021/04/10 02:17:41;;;;;;;5.10;3.10;;;;;;;;;;5099008;28;20177;-48
2021/04/10 02:20:11;;;;;;;4.43;3.30;;;;;;;;;;5110507;28;20442;-48
2021/04/10 02:22:37;;;;;;;4.57;3.20;;;;;;;;;;5094407;28;20264;-48
2021/04/10 02:25:04;;;;;;;4.15;3.20;;;;;;;;;;5122695;28;20563;-49
2021/04/10 02:27:30;;;;;;;4.65;3.22;;;;;;;;;;5101941;28;20224;-48
2021/04/10 02:29:57;;;;;;;4.53;2.85;;;;;;;;;;5097602;28;20507;-48
2021/04/10 02:32:25;;;;;;;4.93;2.72;;;;;;;;;;5113226;27;20169;-48
2021/04/10 02:35:03;;;;;;;3.25;2.55;;;;;;;;;;5121711;27;20414;-48
2021/04/10 02:37:30;;;;;;;4.30;2.50;;;;;;;;;;5124772;27;20179;-48
2021/04/10 02:39:56;;;;;;;4.95;2.83;;;;;;;;;;5119144;27;20169;-48
2021/04/10 02:42:25;;;;;;;3.08;2.50;;;;;;;;;;5106855;28;20169;-48
2021/04/10 02:44:53;;;;;;;3.60;2.90;;;;;;;;;;5122842;27;20177;-49
2021/04/10 02:47:21;;;;;;;4.20;2.80;;;;;;;;;;5118430;28;20483;-48
2021/04/10 02:49:49;;;;;;;3.60;2.50;;;;;;;;;;5110538;27;20193;-48
2021/04/10 02:52:20;;;;;;;4.35;3.08;;;;;;;;;;5099652;28;20188;-48
2021/04/10 02:54:47;;;;;;;5.05;2.80;;;;;;;;;;5113406;27;20179;-48
2021/04/10 02:57:16;;;;;;;4.70;2.53;;;;;;;;;;5117193;28;20470;-48
2021/04/10 02:59:44;;;;;;;3.92;2.33;;;;;;;;;;5118378;27;20548;-48
2021/04/10 03:02:10;;;;;;;5.15;2.50;;;;;;;;;;5115257;28;20705;-48
2021/04/10 03:04:37;;;;;;;3.88;2.72;;;;;;;;;;5110600;27;20212;-48
2021/04/10 03:07:07;;;;;;;4.80;2.78;;;;;;;;;;5109009;28;20185;-48
2021/04/10 03:09:33;;;;;;;4.13;2.80;;;;;;;;;;5132981;27;20184;-48
2021/04/10 03:11:59;;;;;;;4.13;2.75;;;;;;;;;;5123969;27;20193;-48
2021/04/10 03:14:25;;;;;;;4.93;2.53;;;;;;;;;;5133969;27;20184;-48
2021/04/10 03:16:51;;;;;;;5.15;2.45;;;;;;;;;;5132757;27;20191;-48
2021/04/10 03:19:17;;;;;;;3.67;2.40;;;;;;;;;;5109331;27;20262;-48
2021/04/10 03:21:43;;;;;;;3.72;2.63;;;;;;;;;;5115641;28;20188;-48
2021/04/10 03:24:10;;;;;;;3.42;2.20;;;;;;;;;;5128953;27;20460;-48
2021/04/10 03:26:36;;;;;;;3.60;2.25;;;;;;;;;;5117812;28;20184;-48
2021/04/10 03:29:04;;;;;;;3.72;2.40;;;;;;;;;;5101934;27;20553;-48
2021/04/10 03:31:31;;;;;;;4.25;2.47;;;;;;;;;;5097181;28;20208;-48
2021/04/10 03:33:58;;;;;;;4.07;2.67;;;;;;;;;;5101297;28;20201;-48
2021/04/10 03:36:24;;;;;;;3.58;2.08;;;;;;;;;;5125361;27;20245;-48
2021/04/10 03:38:50;;;;;;;5.93;2.63;;;;;;;;;;5135099;27;20180;-48
2021/04/10 03:41:16;;;;;;;6.10;2.60;;;;;;;;;;5111780;27;20181;-48
2021/04/10 03:43:42;;;;;;;4.00;2.47;;;;;;;;;;5113535;27;20205;-48
2021/04/10 03:46:08;;;;;;;3.58;2.30;;;;;;;;;;5116707;28;20438;-48
2021/04/10 03:48:34;;;;;;;4.32;2.63;;;;;;;;;;5108040;27;20190;-48
2021/04/10 03:51:00;;;;;;;4.32;2.20;;;;;;;;;;5111868;27;20248;-48
2021/04/10 03:53:26;;;;;;;2.65;2.20;;;;;;;;;;5121059;27;20189;-48
2021/04/10 03:55:53;;;;;;;4.13;2.35;;;;;;;;;;5116674;28;20181;-48
2021/04/10 03:58:19;;;;;;;5.68;2.80;;;;;;;;;;5113230;27;20435;-48
2021/04/10 04:00:45;;;;;;;2.65;2.42;;;;;;;;;;5135168;27;20436;-48
2021/04/10 04:03:11;;;;;;;4.80;2.42;;;;;;;;;;5112577;27;20174;-48
2021/04/10 04:05:37;;;;;;;2.75;2.50;;;;;;;;;;5100089;28;20227;-48
2021/04/10 04:08:03;;;;;;;4.63;2.35;;;;;;;;;;5135036;27;20214;-48
2021/04/10 04:10:29;;;;;;;5.45;2.63;;;;;;;;;;5136852;27;20200;-48
2021/04/10 04:12:55;;;;;;;2.75;2.30;;;;;;;;;;5121192;27;20173;-48
2021/04/10 04:15:22;;;;;;;4.10;2.53;;;;;;;;;;5127499;27;20173;-48
2021/04/10 04:17:47;;;;;;;3.17;2.28;;;;;;;;;;5115603;28;20205;-48
2021/04/10 04:20:14;;;;;;;4.05;2.38;;;;;;;;;;5109249;27;20205;-48
2021/04/10 04:22:40;;;;;;;4.20;2.45;;;;;;;;;;5115899;27;20181;-48
2021/04/10 04:25:10;;;;;;;3.78;2.47;;;;;;;;;;5124047;27;20198;-48
2021/04/10 04:27:36;;;;;;;5.05;2.20;;;;;;;;;;5116505;27;20181;-48
2021/04/10 04:30:06;;;;;;;3.53;2.30;;;;;;;;;;5123144;27;20482;-48
2021/04/10 04:32:32;;;;;;;4.22;2.58;;;;;;;;;;5110705;27;20224;-48
2021/04/10 04:34:58;;;;;;;3.72;2.58;;;;;;;;;;5106723;27;20182;-48
2021/04/10 04:37:24;;;;;;;4.68;2.45;;;;;;;;;;5116765;27;20609;-48
2021/04/10 04:39:50;;;;;;;3.60;2.40;;;;;;;;;;5119007;27;20541;-48
2021/04/10 04:42:17;;;;;;;3.72;2.42;;;;;;;;;;5102908;28;20178;-47
2021/04/10 04:44:43;;;;;;;3.38;2.30;;;;;;;;;;5096933;28;20178;-48
2021/04/10 04:47:09;;;;;;;3.72;2.47;;;;;;;;;;5095882;28;20196;-48
2021/04/10 04:49:35;;;;;;;4.03;2.60;;;;;;;;;;5117898;27;20193;-48
2021/04/10 04:52:01;;;;;;;4.35;2.42;;;;;;;;;;5115787;27;20212;-48
2021/04/10 04:54:27;;;;;;;3.63;2.50;;;;;;;;;;5114350;28;20222;-48
2021/04/10 04:56:53;;;;;;;3.42;2.20;;;;;;;;;;5095022;28;20185;-48
2021/04/10 04:59:19;;;;;;;5.82;2.60;;;;;;;;;;5095591;28;20232;-48
2021/04/10 05:01:45;;;;;;;4.75;2.58;;;;;;;;;;5125172;27;20251;-48
2021/04/10 05:04:11;;;;;;;4.43;2.30;;;;;;;;;;5112940;27;20210;-48
2021/04/10 05:06:38;;;;;;;3.80;2.17;;;;;;;;;;5122284;27;20177;-48
2021/04/10 05:09:04;;;;;;;4.28;2.35;;;;;;;;;;5131427;27;20184;-48
2021/04/10 05:11:30;;;;;;;3.15;2.50;;;;;;;;;;5114295;28;20203;-48
2021/04/10 05:13:56;;;;;;;4.38;2.53;;;;;;;;;;5129629;27;20252;-48
2021/04/10 05:16:23;;;;;;;5.20;2.55;;;;;;;;;;5125657;27;20536;-48
2021/04/10 05:18:49;;;;;;;3.05;2.35;;;;;;;;;;5113935;27;20180;-48
2021/04/10 05:21:15;;;;;;;3.95;2.25;;;;;;;;;;5113938;27;20205;-48
2021/04/10 05:23:41;;;;;;;3.35;2.92;;;;;;;;;;5099931;28;20205;-48
2021/04/10 05:26:07;;;;;;;3.60;2.45;;;;;;;;;;5131388;27;20275;-48
2021/04/10 05:28:33;;;;;;;3.20;2.58;;;;;;;;;;5097277;27;20181;-48
2021/04/10 05:31:02;;;;;;;4.50;2.55;;;;;;;;;;5134853;27;20200;-48
2021/04/10 05:33:29;;;;;;;3.67;2.92;;;;;;;;;;5106341;27;20169;-48
2021/04/10 05:35:55;;;;;;;3.38;2.33;;;;;;;;;;5119647;27;20195;-48
2021/04/10 05:38:21;;;;;;;4.38;3.00;;;;;;;;;;5134634;27;20489;-48
2021/04/10 05:40:47;;;;;;;4.28;2.63;;;;;;;;;;5135590;27;20248;-48
2021/04/10 05:43:13;;;;;;;3.20;2.60;;;;;;;;;;5135292;27;20259;-48
2021/04/10 05:45:39;;;;;;;4.07;2.35;;;;;;;;;;5129136;27;20184;-48
2021/04/10 05:48:05;;;;;;;3.92;2.58;;;;;;;;;;5110453;28;20274;-49
2021/04/10 05:50:31;;;;;;;3.00;2.40;;;;;;;;;;5111997;28;20208;-48
2021/04/10 05:52:57;;;;;;;3.08;2.40;;;;;;;;;;5094869;28;20185;-48
2021/04/10 05:55:23;;;;;;;4.68;2.67;;;;;;;;;;5112853;28;20185;-48
2021/04/10 05:57:49;;;;;;;3.67;2.63;;;;;;;;;;5107699;28;20181;-48
2021/04/10 06:00:15;;;;;;;3.90;2.28;;;;;;;;;;5111627;28;20229;-48
2021/04/10 06:02:41;;;;;;;3.13;2.22;;;;;;;;;;5111724;28;20490;-48
2021/04/10 06:05:08;;;;;;;4.75;2.50;;;;;;;;;;5111506;28;20177;-48
2021/04/10 06:07:34;;;;;;;5.30;2.60;;;;;;;;;;5103224;28;20212;-48
2021/04/10 06:10:00;;;;;;;6.75;2.22;;;;;;;;;;5118471;28;20500;-48
2021/04/10 06:12:26;;;;;;;3.47;2.55;;;;;;;;;;5108847;27;20195;-48
2021/04/10 06:14:52;;;;;;;3.42;2.42;;;;;;;;;;5106795;28;20185;-48
2021/04/10 06:17:18;;;;;;;3.05;2.05;;;;;;;;;;5111181;27;20177;-48
2021/04/10 06:19:44;;;;;;;4.90;2.03;;;;;;;;;;5121762;27;20256;-48
2021/04/10 06:22:10;;;;;;;3.00;2.20;;;;;;;;;;5117820;28;20220;-48
2021/04/10 06:24:36;;;;;;;3.80;2.20;;;;;;;;;;5127175;27;20216;-48
2021/04/10 06:27:02;;;;;;;3.67;2.42;;;;;;;;;;5103756;28;20271;-48
2021/04/10 06:29:28;;;;;;;2.70;2.50;;;;;;;;;;5109314;27;20181;-48
2021/04/10 06:31:54;;;;;;;4.82;2.28;;;;;;;;;;5126519;27;20264;-48
2021/04/10 06:34:20;;;;;;;4.68;2.28;;;;;;;;;;5122069;27;20181;-48
2021/04/10 06:36:45;;;;;;;4.05;2.40;;;;;;;;;;5115472;28;20319;-48
2021/04/10 06:39:11;;;;;;;3.08;2.50;;;;;;;;;;5106010;27;20173;-48
2021/04/10 06:41:39;;;;;;;3.63;2.47;;;;;;;;;;5113749;27;20177;-48
2021/04/10 06:44:05;;;;;;;3.28;2.28;;;;;;;;;;5103373;28;20244;-48
2021/04/10 06:46:34;;;;;;;3.50;2.67;;;;;;;;;;5125564;27;20184;-48
2021/04/10 06:49:02;;;;;;;4.88;2.28;;;;;;;;;;5112055;28;20173;-48
2021/04/10 06:51:28;;;;;;;4.40;2.30;;;;;;;;;;5118430;27;20205;-48
2021/04/10 06:53:55;;;;;;;5.38;2.50;;;;;;;;;;5117687;27;20169;-48
2021/04/10 06:56:21;;;;;;;2.15;1.95;;;;;;;;;;5112312;28;20302;-48
2021/04/10 06:58:54;;;;;;;2.95;2.17;;;;;;;;;;5116043;28;20177;-48
2021/04/10 07:01:21;;;;;;;3.97;2.15;;;;;;;;;;5117807;27;20204;-48
2021/04/10 07:03:50;;;;;;;4.68;2.60;;;;;;;;;;5114271;27;20185;-48
2021/04/10 07:06:16;;;;;;;3.50;2.30;;;;;;;;;;5120410;27;20177;-48
2021/04/10 07:08:43;;;;;;;3.35;2.50;;;;;;;;;;5111438;27;20174;-48
2021/04/10 07:11:09;;;;;;;3.92;2.42;;;;;;;;;;5114041;27;20320;-48
2021/04/10 07:13:35;;;;;;;3.03;2.40;;;;;;;;;;5116325;27;20181;-47
2021/04/10 07:16:02;;;;;;;7.38;2.70;;;;;;;;;;5120121;27;20471;-47
2021/04/10 07:18:29;;;;;;;10.68;2.60;;;;;;;;;;5113844;28;20177;-48
2021/04/10 07:21:13;;;;;;;5.10;2.33;;;;;;;;;;5103521;27;20239;-47
2021/04/10 07:23:43;;;;;;;9.48;2.60;;;;;;;;;;5097472;28;20252;-47
2021/04/10 07:26:09;;;;;;;4.18;2.20;;;;;;;;;;5133208;27;20222;-47
2021/04/10 07:28:35;;;;;;;4.80;2.20;;;;;;;;;;5117236;27;20267;-47
2021/04/10 07:31:03;;;;;;;6.03;2.50;;;;;;;;;;5094620;28;20197;-47
2021/04/10 07:33:35;;;;;;;5.18;2.00;;;;;;;;;;5113114;27;20173;-47
2021/04/10 07:36:03;;;;;;;8.35;2.13;;;;;;;;;;5126267;27;20168;-47
2021/04/10 07:38:30;;;;;;;4.95;2.67;;;;;;;;;;5137813;27;20180;-47
2021/04/10 07:40:57;;;;;;;6.30;2.40;;;;;;;;;;5121351;27;20177;-47
2021/04/10 07:43:28;;;;;;;4.80;2.55;;;;;;;;;;5115620;27;20250;-44
2021/04/10 07:46:14;;;;;;;6.68;2.50;;;;;;;;;;5128023;27;20634;-44
2021/04/10 07:48:40;;;;;;;6.35;2.40;;;;;;;;;;5106338;28;20189;-43
2021/04/10 07:51:15;;;;;;;3.25;2.03;;;;;;;;;;5118002;27;20239;-43
2021/04/10 07:53:42;;;;;;;6.43;2.28;;;;;;;;;;5116383;28;20230;-43
2021/04/10 07:56:09;;;;;;;3.25;2.08;;;;;;;;;;5117336;28;20176;-43
2021/04/10 07:58:35;;;;;;;6.03;2.58;;;;;;;;;;5115570;27;20218;-44
2021/04/10 08:01:03;;;;;;;5.95;2.35;;;;;;;;;;5137080;27;20188;-44
2021/04/10 08:03:39;;;;;;;5.03;2.45;;;;;;;;;;5125832;27;20234;-45
2021/04/10 08:06:05;;;;;;;9.15;3.38;;;;;;;;;;5116041;28;20191;-45
2021/04/10 08:08:33;;;;;;;17.50;4.80;;;;;;;;;;5125946;27;20180;-44
2021/04/10 08:11:06;;;;;;;20.42;5.57;;;;;;;;;;5115932;28;20203;-45
2021/04/10 08:13:33;;;;;;;20.67;5.07;;;;;;;;;;5111931;27;20178;-47
2021/04/10 08:16:11;;;;;;;12.88;3.90;;;;;;;;;;5107590;28;20188;-46
2021/04/10 08:18:47;;;;;;;16.85;4.13;;;;;;;;;;5109458;27;20433;-50
2021/04/10 08:21:16;;;;;;;10.60;4.03;;;;;;;;;;5107392;27;20181;-46
2021/04/10 08:23:42;;;;;;;15.57;4.05;;;;;;;;;;5105012;27;20185;-46
2021/04/10 08:26:08;;;;;;;12.02;4.15;;;;;;;;;;5112615;27;20181;-46
2021/04/10 08:28:38;;;;;;;11.23;3.00;;;;;;;;;;5107608;27;20250;-46
2021/04/10 08:31:06;;;;;;;9.27;3.92;;;;;;;;;;5104553;27;20280;-48
2021/04/10 08:33:33;;;;;;;10.88;4.07;;;;;;;;;;5097405;28;20169;-48
2021/04/10 08:36:00;;;;;;;9.00;3.50;;;;;;;;;;5100057;28;20268;-47
2021/04/10 08:38:31;;;;;;;8.55;3.55;;;;;;;;;;5102336;27;20278;-47
2021/04/10 08:40:57;;;;;;;9.57;3.13;;;;;;;;;;5098788;28;20185;-48
2021/04/10 08:43:27;;;;;;;5.70;3.00;;;;;;;;;;5116424;27;20198;-47
2021/04/10 08:45:54;;;;;;;11.20;3.33;;;;;;;;;;5134236;27;20176;-46
2021/04/10 08:48:21;;;;;;;8.38;3.60;;;;;;;;;;5128646;27;20537;-47
2021/04/10 08:50:47;;;;;;;11.25;3.90;;;;;;;;;;5110069;28;20655;-46
2021/04/10 08:53:19;;;;;;;12.35;3.40;;;;;;;;;;5115232;27;20204;-46
2021/04/10 08:55:45;;;;;;;13.18;3.38;;;;;;;;;;5102954;28;20209;-49
2021/04/10 08:58:18;;;;;;;10.25;3.38;;;;;;;;;;5114423;27;20169;-47
2021/04/10 09:00:44;;;;;;;8.63;3.47;;;;;;;;;;5115551;28;20486;-47
2021/04/10 09:03:10;;;;;;;8.93;3.22;;;;;;;;;;5105252;27;20174;-47
2021/04/10 09:05:54;;;;;;;7.00;2.92;;;;;;;;;;5116167;27;20229;-46
2021/04/10 09:08:23;;;;;;;6.50;2.70;;;;;;;;;;5119646;27;20567;-49
2021/04/10 09:10:50;;;;;;;5.82;3.17;;;;;;;;;;5115307;28;20199;-47
2021/04/10 09:13:16;;;;;;;6.55;2.80;;;;;;;;;;5117475;27;20176;-47
2021/04/10 09:15:42;;;;;;;6.70;3.10;;;;;;;;;;5107794;28;20189;-47
2021/04/10 09:18:10;;;;;;;7.25;3.20;;;;;;;;;;5103270;28;20178;-48
2021/04/10 09:20:45;;;;;;;11.57;3.42;;;;;;;;;;5106515;28;20752;-47
2021/04/10 09:23:23;;;;;;;8.68;2.97;;;;;;;;;;5109205;28;20177;-46
2021/04/10 09:26:05;;;;;;;7.63;2.63;;;;;;;;;;5111466;28;20185;-47
2021/04/10 09:28:32;;;;;;;6.95;2.90;;;;;;;;;;5105512;28;20177;-48
2021/04/10 09:30:58;;;;;;;11.82;3.15;;;;;;;;;;5114128;28;20523;-49
2021/04/10 09:33:34;;;;;;;21.40;3.85;;;;;;;;;;5111266;27;20193;-46
2021/04/10 09:36:01;;;;;;;19.33;4.95;;;;;;;;;;5115246;27;20181;-47
2021/04/10 09:38:40;;;;;;;18.42;5.32;;;;;;;;;;5110590;28;20181;-46
2021/04/10 09:41:06;;;;;;;17.13;5.53;;;;;;;;;;5116974;27;20590;-46
2021/04/10 09:43:32;;;;;;;16.85;5.13;;;;;;;;;;5117318;27;20190;-49
2021/04/10 09:45:58;;;;;;;15.65;5.47;;;;;;;;;;5100201;28;20215;-47
2021/04/10 09:48:25;;;;;;;15.38;5.15;;;;;;;;;;5107352;28;20275;-49
2021/04/10 09:50:52;;;;;;;13.85;4.80;;;;;;;;;;5099101;28;20478;-49
2021/04/10 09:53:19;;;;;;;14.27;4.93;;;;;;;;;;5107964;27;20231;-46
2021/04/10 09:55:47;;;;;;;10.82;4.18;;;;;;;;;;5121027;28;20181;-47
2021/04/10 09:58:14;;;;;;;16.35;4.10;;;;;;;;;;5121360;28;20200;-48
2021/04/10 10:00:42;;;;;;;13.48;4.57;;;;;;;;;;5107093;28;20185;-48
2021/04/10 10:03:09;;;;;;;9.60;4.43;;;;;;;;;;5098179;28;20444;-47
2021/04/10 10:05:35;;;;;;;15.05;5.20;;;;;;;;;;5113993;28;20230;-47
2021/04/10 10:08:04;;;;;;;9.75;4.68;;;;;;;;;;5106251;28;20196;-46
2021/04/10 10:10:33;;;;;;;12.70;4.85;;;;;;;;;;5109754;28;20454;-48
2021/04/10 10:13:04;;;;;;;9.43;3.97;;;;;;;;;;5111352;28;20466;-46
2021/04/10 10:15:30;;;;;;;10.25;4.68;;;;;;;;;;5101891;28;20178;-48
2021/04/10 10:17:56;;;;;;;9.85;4.07;;;;;;;;;;5109948;28;20177;-44
2021/04/10 10:20:22;;;;;;;8.77;3.78;;;;;;;;;;5110781;28;20730;-44
2021/04/10 10:22:49;;;;;;;7.90;4.20;;;;;;;;;;5110822;28;20177;-44
2021/04/10 10:25:15;;;;;;;7.25;3.88;;;;;;;;;;5119028;28;20628;-44
2021/04/10 10:27:45;;;;;;;10.73;4.57;;;;;;;;;;5108544;28;20268;-44
2021/04/10 10:30:18;;;;;;;9.77;4.50;;;;;;;;;;5103740;28;20257;-44
2021/04/10 10:32:47;;;;;;;6.43;3.50;;;;;;;;;;5097110;28;20177;-48
2021/04/10 10:35:14;;;;;;;8.98;3.92;;;;;;;;;;5101018;28;20173;-48
2021/04/10 10:37:45;;;;;;;9.18;4.50;;;;;;;;;;5119020;28;20198;-47
2021/04/10 10:40:19;;;;;;;10.88;4.30;;;;;;;;;;5101272;28;20560;-49
2021/04/10 10:42:45;;;;;;;10.80;4.53;;;;;;;;;;5111468;28;20180;-47
2021/04/10 10:45:11;;;;;;;8.18;3.70;;;;;;;;;;5114220;28;20656;-48
2021/04/10 10:47:38;;;;;;;9.52;4.10;;;;;;;;;;5109902;28;20170;-49
2021/04/10 10:50:04;;;;;;;12.02;3.85;;;;;;;;;;5107529;28;20185;-46
2021/04/10 10:52:30;;;;;;;7.45;3.83;;;;;;;;;;5112994;27;20248;-47
2021/04/10 10:55:00;;;;;;;10.00;4.20;;;;;;;;;;5138222;27;20188;-47
2021/04/10 10:57:28;;;;;;;8.10;4.05;;;;;;;;;;5118487;27;20256;-47
2021/04/10 10:59:55;;;;;;;15.05;4.03;;;;;;;;;;5101702;28;20165;-46
2021/04/10 11:02:21;;;;;;;9.20;3.70;;;;;;;;;;5098461;28;20185;-46
2021/04/10 11:04:47;;;;;;;12.50;5.68;;;;;;;;;;5107098;28;20186;-47
2021/04/10 11:07:14;;;;;;;15.93;5.93;;;;;;;;;;5110774;27;20181;-47
2021/04/10 11:09:41;;;;;;;12.27;6.18;;;;;;;;;;5102864;28;20185;-48
2021/04/10 11:12:11;;;;;;;9.95;6.10;;;;;;;;;;5101144;28;20197;-46
2021/04/10 11:14:45;;;;;;;9.20;5.18;;;;;;;;;;5097610;28;20325;-46
2021/04/10 11:17:11;;;;;;;12.82;5.97;;;;;;;;;;5108574;28;20173;-46
2021/04/10 11:19:39;;;;;;;11.98;6.40;;;;;;;;;;5108082;28;20197;-46
2021/04/10 11:22:06;;;;;;;13.35;6.60;;;;;;;;;;5116021;28;20173;-47
2021/04/10 11:24:42;;;;;;;19.23;9.32;;;;;;;;;;5116128;28;20239;-46
2021/04/10 11:27:12;;;;;;;14.45;7.85;;;;;;;;;;5101438;28;20244;-48
2021/04/10 11:29:38;;;;;;;14.68;6.90;;;;;;;;;;5103389;28;20260;-48
2021/04/10 11:32:13;;;;;;;16.55;8.15;;;;;;;;;;5117183;28;20197;-47
2021/04/10 11:34:43;;;;;;;24.80;10.57;;;;;;;;;;5101856;28;20200;-47
2021/04/10 11:37:11;;;;;;;17.60;8.20;;;;;;;;;;5097312;28;20250;-48
2021/04/10 11:39:50;;;;;;;17.90;7.85;;;;;;;;;;5106890;28;20255;-47
2021/04/10 11:42:26;;;;;;;16.23;8.05;;;;;;;;;;5117271;28;20169;-48
2021/04/10 11:44:53;;;;;;;15.95;8.15;;;;;;;;;;5117830;28;20204;-48
2021/04/10 11:47:23;;;;;;;15.10;7.22;;;;;;;;;;5111272;28;20236;-48
2021/04/10 11:49:50;;;;;;;19.70;8.57;;;;;;;;;;5102989;28;20197;-49
2021/04/10 11:52:16;;;;;;;17.77;9.43;;;;;;;;;;5134498;27;20204;-49
2021/04/10 11:54:42;;;;;;;141.57;52.67;;;;;;;;;;5117815;27;20180;-49
2021/04/10 11:57:26;;;;;;;260.65;99.20;;;;;;;;;;5113953;27;20189;-49
2021/04/10 11:59:59;;;;;;;301.75;118.88;;;;;;;;;;5106131;28;20579;-49
2021/04/10 12:02:25;;;;;;;399.42;165.07;;;;;;;;;;5108676;28;20334;-49
2021/04/10 12:04:51;;;;;;;450.98;209.82;;;;;;;;;;5111171;28;20176;-47
2021/04/10 12:07:17;;;;;;;473.38;218.50;;;;;;;;;;5107417;28;20181;-48
2021/04/10 12:09:43;;;;;;;414.77;193.77;;;;;;;;;;5108534;28;20230;-47
2021/04/10 12:12:10;;;;;;;421.05;189.18;;;;;;;;;;5114745;28;20453;-47
2021/04/10 12:14:37;;;;;;;405.00;179.75;;;;;;;;;;5117121;28;20165;-47
2021/04/10 12:17:03;;;;;;;395.85;178.73;;;;;;;;;;5104324;28;20428;-47
2021/04/10 12:19:29;;;;;;;353.98;152.60;;;;;;;;;;5104737;28;20264;-46
2021/04/10 12:21:55;;;;;;;355.58;151.38;;;;;;;;;;5100647;28;20285;-47
2021/04/10 12:24:21;;;;;;;345.08;152.00;;;;;;;;;;5107936;28;20195;-47
2021/04/10 12:26:47;;;;;;;333.00;149.82;;;;;;;;;;5099143;28;20196;-47
2021/04/10 12:29:14;;;;;;;338.73;152.63;;;;;;;;;;5116354;28;20181;-47
2021/04/10 12:31:40;;;;;;;352.70;151.23;;;;;;;;;;5115772;28;20649;-48
2021/04/10 12:34:06;;;;;;;190.60;87.30;;;;;;;;;;5111362;28;20211;-48
2021/04/10 12:36:33;;;;;;;239.05;106.22;;;;;;;;;;5098020;28;20212;-48
2021/04/10 12:38:59;;;;;;;245.55;107.57;;;;;;;;;;5110217;28;20276;-48
2021/04/10 12:41:26;;;;;;;260.65;115.22;;;;;;;;;;5106274;28;20182;-48
2021/04/10 12:43:52;;;;;;;277.65;119.82;;;;;;;;;;5109726;28;20186;-49
2021/04/10 12:46:19;;;;;;;234.30;109.10;;;;;;;;;;5114021;28;20222;-47
2021/04/10 12:48:46;;;;;;;212.55;98.00;;;;;;;;;;5095727;28;20185;-46
2021/04/10 12:51:13;;;;;;;207.75;96.18;;;;;;;;;;5115093;27;20227;-48
2021/04/10 12:53:39;;;;;;;168.93;81.32;;;;;;;;;;5136669;27;20190;-47
2021/04/10 12:56:06;;;;;;;176.30;80.22;;;;;;;;;;5100646;28;20184;-47
2021/04/10 12:58:32;;;;;;;157.85;72.38;;;;;;;;;;5115937;28;20173;-49
2021/04/10 13:00:58;;;;;;;156.77;69.85;;;;;;;;;;5115482;28;20193;-48
2021/04/10 13:03:24;;;;;;;134.35;64.25;;;;;;;;;;5106225;28;20196;-46
2021/04/10 13:05:50;;;;;;;132.25;59.42;;;;;;;;;;5120695;27;20176;-47
2021/04/10 13:08:16;;;;;;;124.85;55.00;;;;;;;;;;5129521;27;20260;-47
2021/04/10 13:10:42;;;;;;;147.73;64.80;;;;;;;;;;5115303;28;20464;-48
2021/04/10 13:13:08;;;;;;;130.73;60.92;;;;;;;;;;5108933;28;20169;-47
2021/04/10 13:15:34;;;;;;;142.40;65.15;;;;;;;;;;5105390;28;20556;-48
2021/04/10 13:18:01;;;;;;;136.85;60.95;;;;;;;;;;5110448;28;20449;-47
2021/04/10 13:20:28;;;;;;;132.90;59.38;;;;;;;;;;5105155;28;20222;-46
2021/04/10 13:22:55;;;;;;;124.75;57.33;;;;;;;;;;5115617;28;20407;-46
2021/04/10 13:25:21;;;;;;;138.32;59.35;;;;;;;;;;5115098;28;20173;-46
2021/04/10 13:27:47;;;;;;;131.18;57.13;;;;;;;;;;5113362;28;20210;-47
2021/04/10 13:30:14;;;;;;;121.35;54.70;;;;;;;;;;5099385;28;20472;-47
2021/04/10 13:32:40;;;;;;;108.03;51.40;;;;;;;;;;5099618;28;20862;-47
2021/04/10 13:35:07;;;;;;;108.95;50.45;;;;;;;;;;5104751;28;20435;-47
2021/04/10 13:37:33;;;;;;;100.65;46.92;;;;;;;;;;5115080;28;20181;-47
2021/04/10 13:39:59;;;;;;;98.55;44.03;;;;;;;;;;5118235;27;20168;-47
2021/04/10 13:42:25;;;;;;;99.35;44.10;;;;;;;;;;5133489;27;20181;-47
2021/04/10 13:44:52;;;;;;;91.00;43.42;;;;;;;;;;5102377;28;20588;-48
2021/04/10 13:47:18;;;;;;;98.68;42.58;;;;;;;;;;5101416;28;20192;-48
2021/04/10 13:49:44;;;;;;;89.75;42.40;;;;;;;;;;5102701;28;20227;-48
2021/04/10 13:52:10;;;;;;;83.82;41.15;;;;;;;;;;5130971;27;20258;-48
2021/04/10 13:54:36;;;;;;;76.88;36.42;;;;;;;;;;5127366;27;20177;-46
2021/04/10 13:57:03;;;;;;;63.38;28.83;;;;;;;;;;5114753;28;20467;-48
2021/04/10 13:59:29;;;;;;;39.45;17.80;;;;;;;;;;5104595;28;20552;-48
2021/04/10 14:01:55;;;;;;;26.75;14.35;;;;;;;;;;5099563;28;20635;-47
2021/04/10 14:04:44;;;;;;;30.38;14.82;;;;;;;;;;5101429;28;20185;-47
2021/04/10 14:07:10;;;;;;;33.60;17.88;;;;;;;;;;5074188;28;20488;-46
2021/04/10 14:09:36;;;;;;;27.70;16.02;;;;;;;;;;5109775;28;21637;-46
2021/04/10 14:12:02;;;;;;;31.00;16.67;;;;;;;;;;5103566;28;20224;-48
2021/04/10 14:14:28;;;;;;;35.95;18.17;;;;;;;;;;5094662;28;20215;-49
2021/04/10 14:16:54;;;;;;;32.50;16.50;;;;;;;;;;5094777;28;20228;-49
2021/04/10 14:19:20;;;;;;;29.60;15.88;;;;;;;;;;5099337;28;20211;-48
2021/04/10 14:21:46;;;;;;;30.63;15.35;;;;;;;;;;5111057;28;20205;-48
2021/04/10 14:24:12;;;;;;;25.17;14.13;;;;;;;;;;5115854;28;20248;-49
2021/04/10 14:26:38;;;;;;;27.33;13.55;;;;;;;;;;5111685;28;20186;-50
2021/04/10 14:29:04;;;;;;;30.85;15.23;;;;;;;;;;5097915;28;20185;-50
2021/04/10 14:31:32;;;;;;;27.67;13.25;;;;;;;;;;5112157;28;20203;-49
2021/04/10 14:33:58;;;;;;;25.27;13.15;;;;;;;;;;5113010;28;20169;-48
2021/04/10 14:36:25;;;;;;;23.50;13.27;;;;;;;;;;5114779;28;20181;-50